sensor_id;sensor_type;location;lat;lon;timestamp;temperature;humidity
1578;DHT22;57623;53.608;10.004;2023-06-14T00:02:17;15.70;99.90
1578;DHT22;57623;53.608;10.004;2023-06-14T00:04:45;15.70;99.90
1578;DHT22;57623;53.608;10.004;2023-06-14T00:07:16;15.60;99.90
1578;DHT22;57623;53.608;10.004;2023-06-14T00:09:45;15.60;99.90
1578;DHT22;57623;53.608;10.004;2023-06-14T00:12:13;15.60;99.90
1578;DHT22;57623;53.608;10.004;2023-06-14T00:14:43;15.60;99.90
1578;DHT22;57623;53.608;10.004;2023-06-14T00:17:11;15.60;99.90
1578;DHT22;57623;53.608;10.004;2023-06-14T00:19:39;15.60;99.90
1578;DHT22;57623;53.608;10.004;2023-06-14T00:22:07;15.50;99.90
1578;DHT22;57623;53.608;10.004;2023-06-14T00:24:37;15.50;99.90
1578;DHT22;57623;53.608;10.004;2023-06-14T00:27:06;15.50;99.90
1578;DHT22;57623;53.608;10.004;2023-06-14T00:29:36;15.40;99.90
1578;DHT22;57623;53.608;10.004;2023-06-14T00:32:04;15.50;99.90
1578;DHT22;57623;53.608;10.004;2023-06-14T00:34:32;15.40;99.90
1578;DHT22;57623;53.608;10.004;2023-06-14T00:37:01;15.30;99.90
1578;DHT22;57623;53.608;10.004;2023-06-14T00:39:29;15.30;99.90
1578;DHT22;57623;53.608;10.004;2023-06-14T00:41:58;15.30;99.90
1578;DHT22;57623;53.608;10.004;2023-06-14T00:44:26;15.30;99.90
1578;DHT22;57623;53.608;10.004;2023-06-14T00:46:54;15.30;99.90
1578;DHT22;57623;53.608;10.004;2023-06-14T00:49:22;15.20;99.90
1578;DHT22;57623;53.608;10.004;2023-06-14T00:51:51;15.20;99.90
1578;DHT22;57623;53.608;10.004;2023-06-14T00:54:19;15.20;99.90
1578;DHT22;57623;53.608;10.004;2023-06-14T00:56:47;15.20;99.90
1578;DHT22;57623;53.608;10.004;2023-06-14T00:59:16;15.20;99.90
1578;DHT22;57623;53.608;10.004;2023-06-14T01:01:44;15.20;99.90
1578;DHT22;57623;53.608;10.004;2023-06-14T01:04:13;15.20;99.90
1578;DHT22;57623;53.608;10.004;2023-06-14T01:06:44;15.10;99.90
1578;DHT22;57623;53.608;10.004;2023-06-14T01:09:18;15.10;99.90
1578;DHT22;57623;53.608;10.004;2023-06-14T01:11:50;15.00;99.90
1578;DHT22;57623;53.608;10.004;2023-06-14T01:14:24;15.00;99.90
1578;DHT22;57623;53.608;10.004;2023-06-14T01:16:53;15.00;99.90
1578;DHT22;57623;53.608;10.004;2023-06-14T01:19:22;14.90;99.90
1578;DHT22;57623;53.608;10.004;2023-06-14T01:21:52;14.90;99.90
1578;DHT22;57623;53.608;10.004;2023-06-14T01:24:23;14.90;99.90
1578;DHT22;57623;53.608;10.004;2023-06-14T01:26:54;14.90;99.90
1578;DHT22;57623;53.608;10.004;2023-06-14T01:29:23;14.80;99.90
1578;DHT22;57623;53.608;10.004;2023-06-14T01:31:54;14.80;99.90
1578;DHT22;57623;53.608;10.004;2023-06-14T01:34:22;14.80;99.90
1578;DHT22;57623;53.608;10.004;2023-06-14T01:36:51;14.70;99.90
1578;DHT22;57623;53.608;10.004;2023-06-14T01:39:19;14.70;99.90
1578;DHT22;57623;53.608;10.004;2023-06-14T01:41:50;14.60;99.90
1578;DHT22;57623;53.608;10.004;2023-06-14T01:44:20;14.60;99.90
1578;DHT22;57623;53.608;10.004;2023-06-14T01:46:48;14.60;99.90
1578;DHT22;57623;53.608;10.004;2023-06-14T01:49:16;14.50;99.90
1578;DHT22;57623;53.608;10.004;2023-06-14T01:51:44;14.50;99.90
1578;DHT22;57623;53.608;10.004;2023-06-14T01:54:12;14.50;99.90
1578;DHT22;57623;53.608;10.004;2023-06-14T01:56:40;14.50;99.90
1578;DHT22;57623;53.608;10.004;2023-06-14T01:59:10;14.50;99.90
1578;DHT22;57623;53.608;10.004;2023-06-14T02:01:38;14.40;99.90
1578;DHT22;57623;53.608;10.004;2023-06-14T02:04:06;14.40;99.90
1578;DHT22;57623;53.608;10.004;2023-06-14T02:06:34;14.40;99.90
1578;DHT22;57623;53.608;10.004;2023-06-14T02:09:02;14.30;99.90
1578;DHT22;57623;53.608;10.004;2023-06-14T02:11:30;14.30;99.90
1578;DHT22;57623;53.608;10.004;2023-06-14T02:13:58;14.30;99.90
1578;DHT22;57623;53.608;10.004;2023-06-14T02:16:28;14.30;99.90
1578;DHT22;57623;53.608;10.004;2023-06-14T02:18:57;14.30;99.90
1578;DHT22;57623;53.608;10.004;2023-06-14T02:21:25;14.30;99.90
1578;DHT22;57623;53.608;10.004;2023-06-14T02:23:53;14.30;99.90
1578;DHT22;57623;53.608;10.004;2023-06-14T02:26:21;14.20;99.90
1578;DHT22;57623;53.608;10.004;2023-06-14T02:28:50;14.20;99.90
1578;DHT22;57623;53.608;10.004;2023-06-14T02:31:18;14.20;99.90
1578;DHT22;57623;53.608;10.004;2023-06-14T02:33:47;14.20;99.90
1578;DHT22;57623;53.608;10.004;2023-06-14T02:36:15;14.10;99.90
1578;DHT22;57623;53.608;10.004;2023-06-14T02:38:43;14.10;99.90
1578;DHT22;57623;53.608;10.004;2023-06-14T02:41:11;14.10;99.90
1578;DHT22;57623;53.608;10.004;2023-06-14T02:43:39;14.10;99.90
1578;DHT22;57623;53.608;10.004;2023-06-14T02:46:07;14.00;99.90
1578;DHT22;57623;53.608;10.004;2023-06-14T02:48:35;14.10;99.90
1578;DHT22;57623;53.608;10.004;2023-06-14T02:51:05;14.00;99.90
1578;DHT22;57623;53.608;10.004;2023-06-14T02:53:33;14.00;99.90
1578;DHT22;57623;53.608;10.004;2023-06-14T02:56:01;13.90;99.90
1578;DHT22;57623;53.608;10.004;2023-06-14T02:58:30;13.90;99.90
1578;DHT22;57623;53.608;10.004;2023-06-14T03:00:59;13.90;99.90
1578;DHT22;57623;53.608;10.004;2023-06-14T03:03:30;13.90;99.90
1578;DHT22;57623;53.608;10.004;2023-06-14T03:05:58;13.90;99.90
1578;DHT22;57623;53.608;10.004;2023-06-14T03:08:32;13.90;99.90
1578;DHT22;57623;53.608;10.004;2023-06-14T03:11:05;13.90;99.90
1578;DHT22;57623;53.608;10.004;2023-06-14T03:13:33;13.80;99.90
1578;DHT22;57623;53.608;10.004;2023-06-14T03:16:01;13.80;99.90
1578;DHT22;57623;53.608;10.004;2023-06-14T03:18:30;13.80;99.90
1578;DHT22;57623;53.608;10.004;2023-06-14T03:21:02;13.80;99.90
1578;DHT22;57623;53.608;10.004;2023-06-14T03:23:31;13.70;99.90
1578;DHT22;57623;53.608;10.004;2023-06-14T03:25:59;13.80;99.90
1578;DHT22;57623;53.608;10.004;2023-06-14T03:28:27;13.70;99.90
1578;DHT22;57623;53.608;10.004;2023-06-14T03:30:55;13.70;99.90
1578;DHT22;57623;53.608;10.004;2023-06-14T03:33:23;13.70;99.90
1578;DHT22;57623;53.608;10.004;2023-06-14T03:35:51;13.80;99.90
1578;DHT22;57623;53.608;10.004;2023-06-14T03:38:19;13.70;99.90
1578;DHT22;57623;53.608;10.004;2023-06-14T03:40:49;13.80;99.90
1578;DHT22;57623;53.608;10.004;2023-06-14T03:43:17;13.80;99.90
1578;DHT22;57623;53.608;10.004;2023-06-14T03:45:45;13.80;99.90
1578;DHT22;57623;53.608;10.004;2023-06-14T03:48:13;13.90;99.90
1578;DHT22;57623;53.608;10.004;2023-06-14T03:50:41;13.90;99.90
1578;DHT22;57623;53.608;10.004;2023-06-14T03:53:09;13.90;99.90
1578;DHT22;57623;53.608;10.004;2023-06-14T03:55:37;13.90;99.90
1578;DHT22;57623;53.608;10.004;2023-06-14T03:58:24;13.90;99.90
1578;DHT22;57623;53.608;10.004;2023-06-14T04:00:52;13.90;99.90
1578;DHT22;57623;53.608;10.004;2023-06-14T04:03:20;13.90;99.90
1578;DHT22;57623;53.608;10.004;2023-06-14T04:05:51;14.00;99.90
1578;DHT22;57623;53.608;10.004;2023-06-14T04:08:23;14.00;99.90
1578;DHT22;57623;53.608;10.004;2023-06-14T04:10:51;14.00;99.90
1578;DHT22;57623;53.608;10.004;2023-06-14T04:13:19;14.00;99.90
1578;DHT22;57623;53.608;10.004;2023-06-14T04:15:49;14.10;99.90
1578;DHT22;57623;53.608;10.004;2023-06-14T04:18:17;14.10;99.90
1578;DHT22;57623;53.608;10.004;2023-06-14T04:20:50;14.20;99.90
1578;DHT22;57623;53.608;10.004;2023-06-14T04:23:18;14.20;99.90
1578;DHT22;57623;53.608;10.004;2023-06-14T04:25:46;14.20;99.90
1578;DHT22;57623;53.608;10.004;2023-06-14T04:28:16;14.30;99.90
1578;DHT22;57623;53.608;10.004;2023-06-14T04:30:45;14.30;99.90
1578;DHT22;57623;53.608;10.004;2023-06-14T04:33:15;14.40;99.90
1578;DHT22;57623;53.608;10.004;2023-06-14T04:35:44;14.40;99.90
1578;DHT22;57623;53.608;10.004;2023-06-14T04:38:14;14.50;99.90
1578;DHT22;57623;53.608;10.004;2023-06-14T04:40:42;14.60;99.90
1578;DHT22;57623;53.608;10.004;2023-06-14T04:43:11;14.60;99.90
1578;DHT22;57623;53.608;10.004;2023-06-14T04:45:39;14.60;99.90
1578;DHT22;57623;53.608;10.004;2023-06-14T04:48:11;14.70;99.90
1578;DHT22;57623;53.608;10.004;2023-06-14T04:50:41;14.80;99.90
1578;DHT22;57623;53.608;10.004;2023-06-14T04:53:10;14.80;99.90
1578;DHT22;57623;53.608;10.004;2023-06-14T04:55:38;14.80;99.90
1578;DHT22;57623;53.608;10.004;2023-06-14T04:58:06;14.90;99.90
1578;DHT22;57623;53.608;10.004;2023-06-14T05:00:34;15.00;99.90
1578;DHT22;57623;53.608;10.004;2023-06-14T05:03:02;15.10;99.90
1578;DHT22;57623;53.608;10.004;2023-06-14T05:05:33;15.10;99.90
1578;DHT22;57623;53.608;10.004;2023-06-14T05:08:03;15.20;99.90
1578;DHT22;57623;53.608;10.004;2023-06-14T05:10:31;15.20;99.90
1578;DHT22;57623;53.608;10.004;2023-06-14T05:13:01;15.20;99.90
1578;DHT22;57623;53.608;10.004;2023-06-14T05:15:29;15.30;99.90
1578;DHT22;57623;53.608;10.004;2023-06-14T05:17:57;15.30;99.90
1578;DHT22;57623;53.608;10.004;2023-06-14T05:20:26;15.40;99.90
1578;DHT22;57623;53.608;10.004;2023-06-14T05:22:54;15.50;99.90
1578;DHT22;57623;53.608;10.004;2023-06-14T05:25:24;15.50;99.90
1578;DHT22;57623;53.608;10.004;2023-06-14T05:27:52;15.60;99.90
1578;DHT22;57623;53.608;10.004;2023-06-14T05:30:20;15.60;99.90
1578;DHT22;57623;53.608;10.004;2023-06-14T05:32:48;15.70;99.90
1578;DHT22;57623;53.608;10.004;2023-06-14T05:35:16;15.80;99.90
1578;DHT22;57623;53.608;10.004;2023-06-14T05:37:45;16.00;99.90
1578;DHT22;57623;53.608;10.004;2023-06-14T05:40:14;16.00;99.90
1578;DHT22;57623;53.608;10.004;2023-06-14T05:42:45;16.00;99.90
1578;DHT22;57623;53.608;10.004;2023-06-14T05:45:13;16.00;99.90
1578;DHT22;57623;53.608;10.004;2023-06-14T05:47:42;16.10;99.90
1578;DHT22;57623;53.608;10.004;2023-06-14T05:50:11;16.20;99.90
1578;DHT22;57623;53.608;10.004;2023-06-14T05:52:39;16.30;99.90
1578;DHT22;57623;53.608;10.004;2023-06-14T05:55:07;16.30;99.90
1578;DHT22;57623;53.608;10.004;2023-06-14T05:57:35;16.40;99.90
1578;DHT22;57623;53.608;10.004;2023-06-14T06:00:06;16.50;99.90
1578;DHT22;57623;53.608;10.004;2023-06-14T06:02:37;16.60;99.90
1578;DHT22;57623;53.608;10.004;2023-06-14T06:05:06;16.70;99.90
1578;DHT22;57623;53.608;10.004;2023-06-14T06:07:35;16.70;99.90
1578;DHT22;57623;53.608;10.004;2023-06-14T06:10:05;16.80;99.90
1578;DHT22;57623;53.608;10.004;2023-06-14T06:12:33;16.80;99.90
1578;DHT22;57623;53.608;10.004;2023-06-14T06:15:01;16.90;99.90
1578;DHT22;57623;53.608;10.004;2023-06-14T06:17:30;17.00;99.90
1578;DHT22;57623;53.608;10.004;2023-06-14T06:20:16;17.00;99.90
1578;DHT22;57623;53.608;10.004;2023-06-14T06:22:44;17.10;99.90
1578;DHT22;57623;53.608;10.004;2023-06-14T06:25:12;17.20;99.90
1578;DHT22;57623;53.608;10.004;2023-06-14T06:27:41;17.30;99.90
1578;DHT22;57623;53.608;10.004;2023-06-14T06:30:10;17.30;99.90
1578;DHT22;57623;53.608;10.004;2023-06-14T06:32:40;17.40;99.90
1578;DHT22;57623;53.608;10.004;2023-06-14T06:35:08;17.60;99.90
1578;DHT22;57623;53.608;10.004;2023-06-14T06:37:37;17.60;99.90
1578;DHT22;57623;53.608;10.004;2023-06-14T06:40:06;17.70;99.90
1578;DHT22;57623;53.608;10.004;2023-06-14T06:42:35;17.80;99.90
1578;DHT22;57623;53.608;10.004;2023-06-14T06:45:04;17.80;99.90
1578;DHT22;57623;53.608;10.004;2023-06-14T06:47:32;18.00;99.90
1578;DHT22;57623;53.608;10.004;2023-06-14T06:50:02;18.00;99.90
1578;DHT22;57623;53.608;10.004;2023-06-14T06:52:30;18.00;99.90
1578;DHT22;57623;53.608;10.004;2023-06-14T06:54:58;18.00;99.90
1578;DHT22;57623;53.608;10.004;2023-06-14T06:57:26;18.10;99.90
1578;DHT22;57623;53.608;10.004;2023-06-14T06:59:57;18.20;99.90
1578;DHT22;57623;53.608;10.004;2023-06-14T07:02:25;18.20;99.90
1578;DHT22;57623;53.608;10.004;2023-06-14T07:04:53;18.30;99.90
1578;DHT22;57623;53.608;10.004;2023-06-14T07:07:22;18.30;99.90
1578;DHT22;57623;53.608;10.004;2023-06-14T07:09:50;18.40;99.90
1578;DHT22;57623;53.608;10.004;2023-06-14T07:12:19;18.50;99.90
1578;DHT22;57623;53.608;10.004;2023-06-14T07:14:47;18.60;99.90
1578;DHT22;57623;53.608;10.004;2023-06-14T07:17:15;18.60;99.90
1578;DHT22;57623;53.608;10.004;2023-06-14T07:19:43;18.70;99.90
1578;DHT22;57623;53.608;10.004;2023-06-14T07:22:11;18.70;99.90
1578;DHT22;57623;53.608;10.004;2023-06-14T07:24:40;18.80;99.90
1578;DHT22;57623;53.608;10.004;2023-06-14T07:27:09;18.80;99.90
1578;DHT22;57623;53.608;10.004;2023-06-14T07:29:41;18.90;99.90
1578;DHT22;57623;53.608;10.004;2023-06-14T07:32:09;19.00;99.90
1578;DHT22;57623;53.608;10.004;2023-06-14T07:34:37;19.10;99.90
1578;DHT22;57623;53.608;10.004;2023-06-14T07:37:05;19.20;99.90
1578;DHT22;57623;53.608;10.004;2023-06-14T07:39:33;19.20;99.90
1578;DHT22;57623;53.608;10.004;2023-06-14T07:42:03;19.30;99.90
1578;DHT22;57623;53.608;10.004;2023-06-14T07:44:32;19.40;99.90
1578;DHT22;57623;53.608;10.004;2023-06-14T07:47:00;19.50;99.90
1578;DHT22;57623;53.608;10.004;2023-06-14T07:49:28;19.60;99.90
1578;DHT22;57623;53.608;10.004;2023-06-14T07:51:56;19.60;99.90
1578;DHT22;57623;53.608;10.004;2023-06-14T07:54:25;19.70;99.90
1578;DHT22;57623;53.608;10.004;2023-06-14T07:56:54;19.70;99.90
1578;DHT22;57623;53.608;10.004;2023-06-14T07:59:25;19.70;99.90
1578;DHT22;57623;53.608;10.004;2023-06-14T08:01:53;19.80;99.90
1578;DHT22;57623;53.608;10.004;2023-06-14T08:04:21;19.90;99.90
1578;DHT22;57623;53.608;10.004;2023-06-14T08:06:50;20.10;99.90
1578;DHT22;57623;53.608;10.004;2023-06-14T08:09:19;20.20;99.90
1578;DHT22;57623;53.608;10.004;2023-06-14T08:11:47;20.20;99.90
1578;DHT22;57623;53.608;10.004;2023-06-14T08:14:15;20.30;99.90
1578;DHT22;57623;53.608;10.004;2023-06-14T08:16:44;20.30;99.90
1578;DHT22;57623;53.608;10.004;2023-06-14T08:19:12;20.40;99.90
1578;DHT22;57623;53.608;10.004;2023-06-14T08:21:40;20.50;99.90
1578;DHT22;57623;53.608;10.004;2023-06-14T08:24:08;20.60;99.90
1578;DHT22;57623;53.608;10.004;2023-06-14T08:26:36;20.60;99.90
1578;DHT22;57623;53.608;10.004;2023-06-14T08:29:05;20.70;99.90
1578;DHT22;57623;53.608;10.004;2023-06-14T08:31:33;20.70;99.90
1578;DHT22;57623;53.608;10.004;2023-06-14T08:34:03;20.80;99.90
1578;DHT22;57623;53.608;10.004;2023-06-14T08:36:33;20.80;99.90
1578;DHT22;57623;53.608;10.004;2023-06-14T08:39:02;20.90;99.90
1578;DHT22;57623;53.608;10.004;2023-06-14T08:41:31;21.00;99.90
1578;DHT22;57623;53.608;10.004;2023-06-14T08:43:59;21.10;99.90
1578;DHT22;57623;53.608;10.004;2023-06-14T08:46:29;21.10;99.90
1578;DHT22;57623;53.608;10.004;2023-06-14T08:48:59;21.20;99.90
1578;DHT22;57623;53.608;10.004;2023-06-14T08:51:31;21.30;99.90
1578;DHT22;57623;53.608;10.004;2023-06-14T08:54:01;21.40;99.90
1578;DHT22;57623;53.608;10.004;2023-06-14T08:56:31;21.50;99.90
1578;DHT22;57623;53.608;10.004;2023-06-14T08:59:00;21.50;99.90
1578;DHT22;57623;53.608;10.004;2023-06-14T09:01:33;21.60;99.90
1578;DHT22;57623;53.608;10.004;2023-06-14T09:04:01;21.70;99.90
1578;DHT22;57623;53.608;10.004;2023-06-14T09:06:33;21.80;99.90
1578;DHT22;57623;53.608;10.004;2023-06-14T09:09:03;21.90;99.90
1578;DHT22;57623;53.608;10.004;2023-06-14T09:11:31;21.90;99.90
1578;DHT22;57623;53.608;10.004;2023-06-14T09:14:00;21.90;99.90
1578;DHT22;57623;53.608;10.004;2023-06-14T09:16:32;22.00;99.90
1578;DHT22;57623;53.608;10.004;2023-06-14T09:19:00;22.10;99.90
1578;DHT22;57623;53.608;10.004;2023-06-14T09:21:35;22.20;99.90
1578;DHT22;57623;53.608;10.004;2023-06-14T09:24:04;22.20;99.90
1578;DHT22;57623;53.608;10.004;2023-06-14T09:26:33;22.20;99.90
1578;DHT22;57623;53.608;10.004;2023-06-14T09:29:05;22.20;99.90
1578;DHT22;57623;53.608;10.004;2023-06-14T09:31:35;22.20;99.90
1578;DHT22;57623;53.608;10.004;2023-06-14T09:34:03;22.30;99.90
1578;DHT22;57623;53.608;10.004;2023-06-14T09:36:32;22.40;99.90
1578;DHT22;57623;53.608;10.004;2023-06-14T09:39:03;22.40;99.90
1578;DHT22;57623;53.608;10.004;2023-06-14T09:41:34;22.50;99.90
1578;DHT22;57623;53.608;10.004;2023-06-14T09:44:03;22.60;99.90
1578;DHT22;57623;53.608;10.004;2023-06-14T09:46:36;22.70;99.90
1578;DHT22;57623;53.608;10.004;2023-06-14T09:49:05;22.70;99.90
1578;DHT22;57623;53.608;10.004;2023-06-14T09:51:35;22.80;99.90
1578;DHT22;57623;53.608;10.004;2023-06-14T09:54:06;22.90;99.90
1578;DHT22;57623;53.608;10.004;2023-06-14T09:56:37;23.00;99.90
1578;DHT22;57623;53.608;10.004;2023-06-14T09:59:09;23.10;99.90
1578;DHT22;57623;53.608;10.004;2023-06-14T10:01:42;23.10;99.90
1578;DHT22;57623;53.608;10.004;2023-06-14T10:04:10;23.20;99.90
1578;DHT22;57623;53.608;10.004;2023-06-14T10:06:40;23.30;99.90
1578;DHT22;57623;53.608;10.004;2023-06-14T10:09:10;23.30;99.90
1578;DHT22;57623;53.608;10.004;2023-06-14T10:11:38;23.40;99.90
1578;DHT22;57623;53.608;10.004;2023-06-14T10:14:12;23.50;99.90
1578;DHT22;57623;53.608;10.004;2023-06-14T10:16:47;23.60;99.90
1578;DHT22;57623;53.608;10.004;2023-06-14T10:19:20;23.60;99.90
1578;DHT22;57623;53.608;10.004;2023-06-14T10:21:55;23.80;99.90
1578;DHT22;57623;53.608;10.004;2023-06-14T10:24:30;23.80;99.90
1578;DHT22;57623;53.608;10.004;2023-06-14T10:27:00;23.90;98.50
1578;DHT22;57623;53.608;10.004;2023-06-14T10:29:28;24.00;99.90
1578;DHT22;57623;53.608;10.004;2023-06-14T10:32:00;24.00;99.90
1578;DHT22;57623;53.608;10.004;2023-06-14T10:34:31;24.00;99.90
1578;DHT22;57623;53.608;10.004;2023-06-14T10:37:04;23.90;99.90
1578;DHT22;57623;53.608;10.004;2023-06-14T10:39:38;23.80;98.20
1578;DHT22;57623;53.608;10.004;2023-06-14T10:42:07;23.90;94.50
1578;DHT22;57623;53.608;10.004;2023-06-14T10:44:45;24.00;96.10
1578;DHT22;57623;53.608;10.004;2023-06-14T10:47:23;24.10;99.30
1578;DHT22;57623;53.608;10.004;2023-06-14T10:49:53;24.20;99.90
1578;DHT22;57623;53.608;10.004;2023-06-14T10:52:23;24.40;98.60
1578;DHT22;57623;53.608;10.004;2023-06-14T10:55:12;24.50;99.20
1578;DHT22;57623;53.608;10.004;2023-06-14T10:57:43;24.60;97.20
1578;DHT22;57623;53.608;10.004;2023-06-14T11:00:18;24.70;98.40
1578;DHT22;57623;53.608;10.004;2023-06-14T11:03:31;24.80;98.10
1578;DHT22;57623;53.608;10.004;2023-06-14T11:06:13;25.00;85.40
1578;DHT22;57623;53.608;10.004;2023-06-14T11:11:54;25.30;91.40
1578;DHT22;57623;53.608;10.004;2023-06-14T11:14:23;25.40;78.50
1578;DHT22;57623;53.608;10.004;2023-06-14T11:16:51;25.50;75.20
1578;DHT22;57623;53.608;10.004;2023-06-14T11:19:19;25.50;71.40
1578;DHT22;57623;53.608;10.004;2023-06-14T11:21:49;25.40;71.50
1578;DHT22;57623;53.608;10.004;2023-06-14T11:24:17;25.50;73.00
1578;DHT22;57623;53.608;10.004;2023-06-14T11:26:47;25.40;76.30
1578;DHT22;57623;53.608;10.004;2023-06-14T11:29:16;25.30;79.10
1578;DHT22;57623;53.608;10.004;2023-06-14T11:31:45;25.30;80.70
1578;DHT22;57623;53.608;10.004;2023-06-14T11:34:13;25.20;79.70
1578;DHT22;57623;53.608;10.004;2023-06-14T11:36:42;25.10;81.30
1578;DHT22;57623;53.608;10.004;2023-06-14T11:39:10;25.20;82.50
1578;DHT22;57623;53.608;10.004;2023-06-14T11:41:40;25.30;78.20
1578;DHT22;57623;53.608;10.004;2023-06-14T11:44:09;25.50;80.20
1578;DHT22;57623;53.608;10.004;2023-06-14T11:46:39;25.70;82.30
1578;DHT22;57623;53.608;10.004;2023-06-14T11:49:08;25.90;83.50
1578;DHT22;57623;53.608;10.004;2023-06-14T11:51:37;26.10;79.70
1578;DHT22;57623;53.608;10.004;2023-06-14T11:54:06;26.20;80.80
1578;DHT22;57623;53.608;10.004;2023-06-14T11:56:36;26.40;73.00
1578;DHT22;57623;53.608;10.004;2023-06-14T11:59:04;26.40;71.60
1578;DHT22;57623;53.608;10.004;2023-06-14T12:01:36;26.40;71.60
1578;DHT22;57623;53.608;10.004;2023-06-14T12:04:07;26.30;72.40
1578;DHT22;57623;53.608;10.004;2023-06-14T12:06:35;26.00;73.60
1578;DHT22;57623;53.608;10.004;2023-06-14T12:09:07;25.90;74.40
1578;DHT22;57623;53.608;10.004;2023-06-14T12:11:40;25.80;77.10
1578;DHT22;57623;53.608;10.004;2023-06-14T12:14:08;25.80;77.80
1578;DHT22;57623;53.608;10.004;2023-06-14T12:16:38;26.00;76.80
1578;DHT22;57623;53.608;10.004;2023-06-14T12:19:13;26.20;79.30
1578;DHT22;57623;53.608;10.004;2023-06-14T12:21:41;26.20;72.10
1578;DHT22;57623;53.608;10.004;2023-06-14T12:24:11;26.20;75.60
1578;DHT22;57623;53.608;10.004;2023-06-14T12:26:41;26.30;78.40
1578;DHT22;57623;53.608;10.004;2023-06-14T12:29:09;26.40;67.10
1578;DHT22;57623;53.608;10.004;2023-06-14T12:31:38;26.40;69.40
1578;DHT22;57623;53.608;10.004;2023-06-14T12:34:07;26.50;72.00
1578;DHT22;57623;53.608;10.004;2023-06-14T12:36:36;26.70;71.60
1578;DHT22;57623;53.608;10.004;2023-06-14T12:39:08;26.90;63.60
1578;DHT22;57623;53.608;10.004;2023-06-14T12:41:36;26.80;63.50
1578;DHT22;57623;53.608;10.004;2023-06-14T12:44:04;26.70;65.80
1578;DHT22;57623;53.608;10.004;2023-06-14T12:46:33;26.50;61.10
1578;DHT22;57623;53.608;10.004;2023-06-14T12:49:01;26.30;65.20
1578;DHT22;57623;53.608;10.004;2023-06-14T12:51:29;26.40;63.70
1578;DHT22;57623;53.608;10.004;2023-06-14T12:53:59;26.60;61.60
1578;DHT22;57623;53.608;10.004;2023-06-14T12:56:27;26.80;61.60
1578;DHT22;57623;53.608;10.004;2023-06-14T12:58:55;27.10;67.00
1578;DHT22;57623;53.608;10.004;2023-06-14T13:01:23;27.30;64.30
1578;DHT22;57623;53.608;10.004;2023-06-14T13:03:51;27.40;64.40
1578;DHT22;57623;53.608;10.004;2023-06-14T13:06:21;27.30;60.30
1578;DHT22;57623;53.608;10.004;2023-06-14T13:08:49;27.10;59.10
1578;DHT22;57623;53.608;10.004;2023-06-14T13:11:18;26.90;58.20
1578;DHT22;57623;53.608;10.004;2023-06-14T13:13:46;26.90;59.90
1578;DHT22;57623;53.608;10.004;2023-06-14T13:16:14;26.90;62.90
1578;DHT22;57623;53.608;10.004;2023-06-14T13:18:42;26.90;59.00
1578;DHT22;57623;53.608;10.004;2023-06-14T13:21:10;26.80;60.60
1578;DHT22;57623;53.608;10.004;2023-06-14T13:23:38;26.70;61.20
1578;DHT22;57623;53.608;10.004;2023-06-14T13:26:06;26.70;62.60
1578;DHT22;57623;53.608;10.004;2023-06-14T13:28:36;26.80;62.50
1578;DHT22;57623;53.608;10.004;2023-06-14T13:31:04;26.70;62.20
1578;DHT22;57623;53.608;10.004;2023-06-14T13:33:32;26.70;62.00
1578;DHT22;57623;53.608;10.004;2023-06-14T13:36:00;26.70;60.40
1578;DHT22;57623;53.608;10.004;2023-06-14T13:38:29;26.90;60.70
1578;DHT22;57623;53.608;10.004;2023-06-14T13:40:57;27.20;63.00
1578;DHT22;57623;53.608;10.004;2023-06-14T13:43:25;27.30;57.70
1578;DHT22;57623;53.608;10.004;2023-06-14T13:45:54;27.20;56.40
1578;DHT22;57623;53.608;10.004;2023-06-14T13:48:22;27.30;55.80
1578;DHT22;57623;53.608;10.004;2023-06-14T13:50:50;27.50;54.70
1578;DHT22;57623;53.608;10.004;2023-06-14T13:53:18;27.70;54.70
1578;DHT22;57623;53.608;10.004;2023-06-14T13:55:46;27.80;53.50
1578;DHT22;57623;53.608;10.004;2023-06-14T13:58:14;27.70;51.30
1578;DHT22;57623;53.608;10.004;2023-06-14T14:00:42;27.80;52.30
1578;DHT22;57623;53.608;10.004;2023-06-14T14:03:12;28.00;51.30
1578;DHT22;57623;53.608;10.004;2023-06-14T14:05:40;28.20;50.60
1578;DHT22;57623;53.608;10.004;2023-06-14T14:08:08;28.30;49.50
1578;DHT22;57623;53.608;10.004;2023-06-14T14:10:36;28.50;50.50
1578;DHT22;57623;53.608;10.004;2023-06-14T14:13:04;28.50;47.60
1578;DHT22;57623;53.608;10.004;2023-06-14T14:15:32;28.30;46.80
1578;DHT22;57623;53.608;10.004;2023-06-14T14:18:01;28.30;47.20
1578;DHT22;57623;53.608;10.004;2023-06-14T14:20:31;28.50;46.90
1578;DHT22;57623;53.608;10.004;2023-06-14T14:22:59;28.70;45.90
1578;DHT22;57623;53.608;10.004;2023-06-14T14:25:28;28.90;45.20
1578;DHT22;57623;53.608;10.004;2023-06-14T14:27:56;29.00;42.00
1578;DHT22;57623;53.608;10.004;2023-06-14T14:30:24;29.10;43.60
1578;DHT22;57623;53.608;10.004;2023-06-14T14:32:53;29.20;44.10
1578;DHT22;57623;53.608;10.004;2023-06-14T14:35:21;29.40;42.50
1578;DHT22;57623;53.608;10.004;2023-06-14T14:37:53;29.50;42.60
1578;DHT22;57623;53.608;10.004;2023-06-14T14:40:21;29.20;42.40
1578;DHT22;57623;53.608;10.004;2023-06-14T14:42:49;29.10;42.60
1578;DHT22;57623;53.608;10.004;2023-06-14T14:45:17;29.10;41.90
1578;DHT22;57623;53.608;10.004;2023-06-14T14:47:45;29.10;41.50
1578;DHT22;57623;53.608;10.004;2023-06-14T14:50:13;29.00;40.80
1578;DHT22;57623;53.608;10.004;2023-06-14T14:52:43;28.90;39.50
1578;DHT22;57623;53.608;10.004;2023-06-14T14:55:14;29.00;40.70
1578;DHT22;57623;53.608;10.004;2023-06-14T14:57:42;29.10;40.20
1578;DHT22;57623;53.608;10.004;2023-06-14T15:00:11;29.30;39.40
1578;DHT22;57623;53.608;10.004;2023-06-14T15:02:39;29.40;39.80
1578;DHT22;57623;53.608;10.004;2023-06-14T15:05:07;29.40;38.90
1578;DHT22;57623;53.608;10.004;2023-06-14T15:07:35;29.50;38.50
1578;DHT22;57623;53.608;10.004;2023-06-14T15:10:07;29.70;37.70
1578;DHT22;57623;53.608;10.004;2023-06-14T15:12:36;29.70;37.90
1578;DHT22;57623;53.608;10.004;2023-06-14T15:15:05;29.90;37.20
1578;DHT22;57623;53.608;10.004;2023-06-14T15:17:33;29.90;37.40
1578;DHT22;57623;53.608;10.004;2023-06-14T15:20:01;29.70;36.30
1578;DHT22;57623;53.608;10.004;2023-06-14T15:22:29;29.50;36.80
1578;DHT22;57623;53.608;10.004;2023-06-14T15:24:57;29.40;36.90
1578;DHT22;57623;53.608;10.004;2023-06-14T15:27:25;29.40;38.20
1578;DHT22;57623;53.608;10.004;2023-06-14T15:29:55;29.50;39.00
1578;DHT22;57623;53.608;10.004;2023-06-14T15:32:23;29.60;36.80
1578;DHT22;57623;53.608;10.004;2023-06-14T15:34:52;29.60;36.30
1578;DHT22;57623;53.608;10.004;2023-06-14T15:37:19;29.50;36.70
1578;DHT22;57623;53.608;10.004;2023-06-14T15:39:47;29.50;37.30
1578;DHT22;57623;53.608;10.004;2023-06-14T15:42:15;29.60;36.50
1578;DHT22;57623;53.608;10.004;2023-06-14T15:44:43;29.50;35.50
1578;DHT22;57623;53.608;10.004;2023-06-14T15:47:14;29.40;36.60